Time;durP1;ratioP1;P1;durP2;ratioP2;P2;SDS_P1;SDS_P2;PMS_P1;PMS_P2;Temp;Humidity;BMP_temperature;BMP_pressure;BME280_temperature;BME280_humidity;BME280_pressure;Samples;Min_cycle;Max_cycle;Signal;HPM_P1;HPM_P2
2020/12/08 00:00:07;;;;;;;44.28;24.08;;;;;;;3.14;100.00;94725.69;5065728;28;20133;-70
2020/12/08 00:02:34;;;;;;;24.13;11.38;;;;;;;3.12;100.00;94731.00;5080021;28;20036;-71
2020/12/08 00:05:00;;;;;;;29.92;12.60;;;;;;;3.10;100.00;94714.16;5086534;28;20039;-71
2020/12/08 00:07:28;;;;;;;10.70;6.35;;;;;;;3.17;100.00;94728.69;5070637;28;20041;-70
2020/12/08 00:09:54;;;;;;;17.10;8.05;;;;;;;3.16;100.00;94726.28;5066777;28;20048;-70
2020/12/08 00:12:27;;;;;;;30.38;17.35;;;;;;;3.14;100.00;94730.84;5070645;28;20056;-70
2020/12/08 00:14:54;;;;;;;31.90;15.73;;;;;;;3.05;100.00;94730.16;5065997;28;20494;-69
2020/12/08 00:17:21;;;;;;;17.95;10.43;;;;;;;2.87;100.00;94733.97;5066134;28;20047;-70
2020/12/08 00:19:48;;;;;;;13.65;8.32;;;;;;;2.95;100.00;94730.47;5075466;28;20076;-70
2020/12/08 00:22:15;;;;;;;36.72;15.07;;;;;;;2.81;100.00;94729.59;5066551;28;20057;-69
2020/12/08 00:24:41;;;;;;;34.17;13.65;;;;;;;2.83;100.00;94743.06;5076140;28;20055;-69
2020/12/08 00:27:09;;;;;;;61.55;25.45;;;;;;;2.89;100.00;94746.66;5066504;28;20037;-70
2020/12/08 00:29:39;;;;;;;29.25;11.75;;;;;;;2.96;100.00;94746.72;5066193;28;20041;-69
2020/12/08 00:32:08;;;;;;;17.80;7.82;;;;;;;3.09;100.00;94746.03;5066132;28;20059;-71
2020/12/08 00:34:36;;;;;;;27.42;10.18;;;;;;;3.15;100.00;94750.41;5064612;28;20068;-70
2020/12/08 00:37:04;;;;;;;223.18;78.05;;;;;;;3.24;100.00;94749.31;5066004;28;20051;-71
2020/12/08 00:39:31;;;;;;;45.78;20.45;;;;;;;3.21;100.00;94755.63;5084246;28;20594;-70
2020/12/08 00:41:58;;;;;;;33.75;12.68;;;;;;;3.21;100.00;94754.84;5069790;28;20120;-70
2020/12/08 00:44:24;;;;;;;31.92;13.73;;;;;;;3.04;100.00;94754.28;5074943;28;20485;-70
2020/12/08 00:46:51;;;;;;;76.93;33.33;;;;;;;3.11;100.00;94760.28;5083439;28;20119;-71
2020/12/08 00:49:20;;;;;;;33.05;15.05;;;;;;;3.01;100.00;94741.81;5085446;28;20501;-70
2020/12/08 00:51:46;;;;;;;14.50;7.75;;;;;;;2.86;100.00;94768.41;5075374;28;20127;-70
2020/12/08 00:54:13;;;;;;;12.98;6.20;;;;;;;2.94;100.00;94764.91;5087353;28;20184;-70
2020/12/08 00:56:40;;;;;;;9.25;5.10;;;;;;;2.94;100.00;94769.28;5081572;28;20143;-70
2020/12/08 00:59:13;;;;;;;7.70;4.95;;;;;;;2.96;100.00;94767.31;5087179;28;20425;-70
2020/12/08 01:01:45;;;;;;;7.63;5.57;;;;;;;2.78;100.00;94755.66;5087823;28;20101;-71
2020/12/08 01:04:13;;;;;;;8.85;5.63;;;;;;;2.85;100.00;94766.81;5085953;28;20055;-71
2020/12/08 01:06:41;;;;;;;10.23;5.95;;;;;;;2.99;100.00;94772.06;5084443;28;20066;-70
2020/12/08 01:09:08;;;;;;;10.82;5.97;;;;;;;3.00;100.00;94771.09;5068531;28;20037;-70
2020/12/08 01:11:43;;;;;;;11.25;6.03;;;;;;;3.07;100.00;94764.22;5075444;28;20052;-70
2020/12/08 01:14:13;;;;;;;7.50;5.07;;;;;;;3.11;100.00;94767.22;5079224;28;20131;-70
2020/12/08 01:16:41;;;;;;;5.03;3.70;;;;;;;3.22;100.00;94762.38;5067735;28;20505;-70
2020/12/08 01:19:08;;;;;;;5.05;3.58;;;;;;;3.20;100.00;94758.38;5081247;28;20119;-70
2020/12/08 01:21:35;;;;;;;9.32;3.45;;;;;;;3.47;100.00;94779.19;5068551;28;20071;-70
2020/12/08 01:24:01;;;;;;;7.80;3.50;;;;;;;3.34;100.00;94765.22;5075863;28;20097;-70
2020/12/08 01:26:28;;;;;;;7.32;3.85;;;;;;;3.35;100.00;94771.16;5071344;28;20052;-70
2020/12/08 01:28:59;;;;;;;16.75;8.45;;;;;;;3.29;100.00;94769.34;5070724;28;20142;-70
2020/12/08 01:31:33;;;;;;;13.93;7.57;;;;;;;3.21;100.00;94772.84;5077235;28;20417;-71
2020/12/08 01:34:07;;;;;;;20.90;10.82;;;;;;;3.14;100.00;94770.22;5073671;28;20044;-70
2020/12/08 01:36:34;;;;;;;17.95;10.15;;;;;;;3.36;100.00;94770.19;5071781;28;20116;-71
2020/12/08 01:39:02;;;;;;;26.60;12.57;;;;;;;3.43;100.00;94773.59;5077361;28;20036;-71
2020/12/08 01:41:28;;;;;;;13.63;8.00;;;;;;;3.48;99.64;94783.34;5076264;28;20041;-71
2020/12/08 01:43:55;;;;;;;12.50;7.60;;;;;;;3.54;99.77;94775.66;5068421;28;20119;-71
2020/12/08 01:46:26;;;;;;;16.42;7.63;;;;;;;3.61;99.33;94771.34;5074525;28;20040;-70
2020/12/08 01:48:55;;;;;;;10.65;6.90;;;;;;;3.68;99.18;94775.75;5074449;28;20040;-70
2020/12/08 01:51:23;;;;;;;12.63;7.95;;;;;;;3.61;98.77;94775.72;5087008;28;20052;-70
2020/12/08 01:53:52;;;;;;;11.93;7.53;;;;;;;3.55;98.93;94766.97;5084840;28;20092;-70
2020/12/08 01:56:22;;;;;;;14.48;6.95;;;;;;;3.62;98.48;94762.66;5076823;28;20040;-70
2020/12/08 01:58:54;;;;;;;13.98;7.95;;;;;;;3.27;100.00;94761.00;5075867;28;20143;-70
2020/12/08 02:01:22;;;;;;;40.40;20.65;;;;;;;3.45;99.41;94776.78;5081761;28;20075;-70
2020/12/08 02:03:49;;;;;;;20.90;11.65;;;;;;;3.38;99.43;94766.44;5082697;28;20417;-70
2020/12/08 02:06:16;;;;;;;25.63;11.18;;;;;;;3.40;99.45;94768.81;5072512;28;20505;-71
2020/12/08 02:08:43;;;;;;;19.50;10.98;;;;;;;3.51;99.54;94770.91;5073098;28;20048;-70
2020/12/08 02:11:17;;;;;;;22.55;11.38;;;;;;;3.62;99.37;94778.09;5066915;28;20041;-70
2020/12/08 02:13:45;;;;;;;16.10;10.45;;;;;;;3.68;99.23;94760.31;5065745;28;20045;-71
2020/12/08 02:16:15;;;;;;;14.48;8.73;;;;;;;3.71;98.67;94765.06;5063789;28;20068;-71
2020/12/08 02:18:41;;;;;;;12.73;6.97;;;;;;;3.75;98.57;94755.97;5071760;28;20047;-71
2020/12/08 02:21:08;;;;;;;7.22;5.25;;;;;;;3.80;98.18;94769.09;5071347;28;20486;-71
2020/12/08 02:23:51;;;;;;;8.05;4.90;;;;;;;3.47;98.89;94764.50;5065884;28;20043;-71
2020/12/08 02:26:26;;;;;;;8.10;4.63;;;;;;;3.15;100.00;94760.72;5083270;28;20135;-70
2020/12/08 02:28:54;;;;;;;7.93;4.68;;;;;;;3.02;100.00;94753.69;5086208;28;20459;-71
2020/12/08 02:31:21;;;;;;;7.72;4.50;;;;;;;2.90;100.00;94757.75;5087435;28;20032;-70
2020/12/08 02:33:48;;;;;;;9.07;4.80;;;;;;;2.78;100.00;94765.97;5069241;28;20044;-71
2020/12/08 02:36:15;;;;;;;9.10;4.75;;;;;;;2.76;100.00;94767.91;5068701;28;20063;-71
2020/12/08 02:38:42;;;;;;;10.30;5.95;;;;;;;2.63;100.00;94778.09;5065457;28;20048;-71
2020/12/08 02:41:11;;;;;;;12.43;5.80;;;;;;;2.71;100.00;94765.09;5078856;28;20678;-71
2020/12/08 02:43:38;;;;;;;10.00;5.57;;;;;;;2.75;100.00;94763.75;5065070;28;20102;-71
2020/12/08 02:46:05;;;;;;;12.00;6.82;;;;;;;2.84;100.00;94765.22;5076333;28;20044;-71
2020/12/08 02:48:31;;;;;;;14.57;7.57;;;;;;;2.82;100.00;94767.16;5074775;28;20104;-71
2020/12/08 02:51:04;;;;;;;10.38;6.90;;;;;;;2.73;100.00;94758.00;5081979;28;20040;-71
2020/12/08 02:53:30;;;;;;;16.95;8.50;;;;;;;2.76;100.00;94767.91;5065621;28;20475;-70
2020/12/08 02:55:58;;;;;;;12.48;6.90;;;;;;;2.95;100.00;94765.69;5067073;28;20037;-70
2020/12/08 02:58:27;;;;;;;18.83;11.50;;;;;;;2.99;100.00;94766.91;5066379;28;20044;-70
2020/12/08 03:00:54;;;;;;;22.83;13.65;;;;;;;3.07;100.00;94764.22;5072695;28;20391;-70
2020/12/08 03:03:20;;;;;;;16.20;10.18;;;;;;;3.06;100.00;94767.78;5085708;28;20055;-70
2020/12/08 03:05:47;;;;;;;29.38;17.63;;;;;;;3.05;100.00;94766.19;5083819;28;20097;-70
2020/12/08 03:08:14;;;;;;;34.53;19.38;;;;;;;2.99;100.00;94756.63;5066531;28;20056;-70
2020/12/08 03:10:40;;;;;;;27.00;14.20;;;;;;;2.98;100.00;94755.06;5067088;28;20102;-69
2020/12/08 03:13:08;;;;;;;17.90;10.85;;;;;;;2.97;100.00;94763.75;5059157;28;20416;-70
2020/12/08 03:15:38;;;;;;;19.50;11.65;;;;;;;3.05;100.00;94761.06;5065209;28;20040;-70
2020/12/08 03:18:05;;;;;;;16.08;8.98;;;;;;;3.00;100.00;94763.38;5071470;28;20131;-70
2020/12/08 03:20:31;;;;;;;17.90;9.90;;;;;;;3.06;100.00;94762.63;5084990;28;20051;-70
2020/12/08 03:22:58;;;;;;;13.07;8.60;;;;;;;3.12;100.00;94756.75;5085058;28;20050;-70
2020/12/08 03:25:25;;;;;;;15.27;8.15;;;;;;;3.08;100.00;94765.00;5072029;28;20041;-70
2020/12/08 03:27:52;;;;;;;14.55;9.00;;;;;;;3.09;100.00;94767.41;5072321;28;20072;-70
2020/12/08 03:30:21;;;;;;;14.68;8.82;;;;;;;3.10;100.00;94766.44;5084948;28;20055;-70
2020/12/08 03:32:53;;;;;;;15.38;7.90;;;;;;;3.06;99.94;94766.00;5080685;28;20040;-71
2020/12/08 03:35:22;;;;;;;24.90;7.90;;;;;;;3.17;99.77;94769.03;5084846;28;20535;-71
2020/12/08 03:37:51;;;;;;;16.98;9.77;;;;;;;3.16;99.32;94763.09;5067909;28;20063;-70
2020/12/08 03:40:17;;;;;;;21.95;10.15;;;;;;;3.18;98.95;94766.28;5083688;28;20130;-70
2020/12/08 03:42:44;;;;;;;27.50;8.82;;;;;;;3.15;99.04;94782.13;5065577;28;20157;-70
2020/12/08 03:45:10;;;;;;;19.95;10.15;;;;;;;3.06;99.05;94765.19;5079016;28;20032;-70
2020/12/08 03:47:49;;;;;;;20.15;9.98;;;;;;;3.01;98.97;94785.56;5085578;28;20043;-70
2020/12/08 03:50:20;;;;;;;28.02;9.10;;;;;;;2.94;99.26;94784.72;5065564;28;20041;-70
2020/12/08 03:52:48;;;;;;;14.45;8.02;;;;;;;2.79;99.16;94772.69;5084085;28;20429;-70
2020/12/08 03:55:14;;;;;;;17.20;8.45;;;;;;;2.90;99.31;94773.16;5080041;28;20036;-70
2020/12/08 03:57:41;;;;;;;15.98;9.65;;;;;;;2.90;99.51;94773.16;5084495;28;20041;-70
2020/12/08 04:00:11;;;;;;;19.25;9.48;;;;;;;2.93;99.69;94783.91;5069869;28;20044;-70
2020/12/08 04:02:38;;;;;;;20.52;10.02;;;;;;;2.95;99.66;94763.13;5069691;28;20044;-70
2020/12/08 04:05:09;;;;;;;22.70;9.85;;;;;;;3.05;99.52;94790.13;5085295;28;20180;-70
2020/12/08 04:07:38;;;;;;;21.77;11.70;;;;;;;3.04;99.50;94795.47;5072330;28;20087;-70
2020/12/08 04:10:05;;;;;;;23.83;11.38;;;;;;;3.11;99.22;94791.19;5065004;28;20051;-70
2020/12/08 04:12:31;;;;;;;22.42;9.85;;;;;;;3.14;98.88;94795.97;5066421;28;20045;-70
2020/12/08 04:14:59;;;;;;;22.05;10.80;;;;;;;3.16;98.44;94801.72;5069086;28;20048;-70
2020/12/08 04:17:26;;;;;;;19.20;10.13;;;;;;;3.15;98.49;94797.56;5088467;28;21722;-70
2020/12/08 04:19:53;;;;;;;21.92;11.55;;;;;;;3.23;98.31;94805.13;5089240;28;20598;-70
2020/12/08 04:22:20;;;;;;;19.65;8.88;;;;;;;3.17;98.00;94816.19;5088978;28;20051;-70
2020/12/08 04:24:48;;;;;;;16.08;7.97;;;;;;;3.05;97.92;94812.50;5087638;28;20410;-70
2020/12/08 04:27:14;;;;;;;16.02;9.60;;;;;;;2.94;98.47;94811.22;5087752;28;20059;-70
2020/12/08 04:29:48;;;;;;;21.77;9.25;;;;;;;2.92;99.06;94822.66;5088617;28;20056;-70
2020/12/08 04:32:19;;;;;;;14.63;8.63;;;;;;;2.86;99.35;94814.72;5067790;28;20556;-70
2020/12/08 04:34:45;;;;;;;22.40;10.13;;;;;;;2.96;99.43;94816.19;5072440;28;20042;-70
2020/12/08 04:37:12;;;;;;;21.30;11.50;;;;;;;3.00;99.16;94825.13;5072540;28;20490;-70
2020/12/08 04:39:38;;;;;;;23.15;12.15;;;;;;;3.00;98.94;94819.97;5082030;28;20082;-70
2020/12/08 04:42:05;;;;;;;17.95;10.93;;;;;;;3.00;98.80;94820.78;5067337;28;20032;-70
2020/12/08 04:44:31;;;;;;;29.48;11.63;;;;;;;2.95;98.97;94817.16;5069668;28;20070;-70
2020/12/08 04:46:58;;;;;;;28.10;12.32;;;;;;;2.97;98.94;94810.06;5069632;28;20044;-70
2020/12/08 04:49:26;;;;;;;17.80;8.50;;;;;;;2.98;98.80;94806.50;5073835;28;20367;-70
2020/12/08 04:51:55;;;;;;;28.70;11.10;;;;;;;2.94;98.70;94813.00;5082051;28;20042;-70
2020/12/08 04:54:22;;;;;;;20.02;10.63;;;;;;;2.75;99.33;94810.03;5084386;28;20052;-71
2020/12/08 04:56:49;;;;;;;45.00;10.45;;;;;;;2.87;99.33;94825.81;5078613;28;20055;-70
2020/12/08 04:59:23;;;;;;;39.40;9.75;;;;;;;2.85;99.50;94833.69;5078127;28;20035;-71
2020/12/08 05:01:50;;;;;;;24.35;12.57;;;;;;;2.83;99.63;94835.66;5052975;28;20119;-70
2020/12/08 05:04:24;;;;;;;30.83;12.75;;;;;;;2.86;99.88;94834.47;5070684;28;20043;-71
2020/12/08 05:07:01;;;;;;;27.30;10.98;;;;;;;2.83;99.67;94830.50;5077890;28;20044;-71
2020/12/08 05:09:28;;;;;;;22.30;12.40;;;;;;;2.73;99.65;94804.28;5075352;28;20047;-71
2020/12/08 05:11:56;;;;;;;20.05;8.65;;;;;;;2.92;99.79;94814.94;5080777;28;20040;-70
2020/12/08 05:14:23;;;;;;;14.25;8.57;;;;;;;2.97;99.31;94820.34;5077549;28;20051;-70
2020/12/08 05:17:00;;;;;;;24.20;12.68;;;;;;;2.86;99.23;94814.72;5071174;28;20482;-71
2020/12/08 05:19:26;;;;;;;28.15;12.75;;;;;;;2.96;99.51;94819.56;5086535;28;20086;-71
2020/12/08 05:21:53;;;;;;;15.02;8.15;;;;;;;2.94;99.63;94805.28;5080432;28;20044;-71
2020/12/08 05:24:28;;;;;;;50.47;28.95;;;;;;;3.07;99.49;94820.84;5068017;28;20044;-71
2020/12/08 05:27:03;;;;;;;31.13;19.77;;;;;;;3.09;99.45;94826.59;5077801;28;20028;-71
2020/12/08 05:29:30;;;;;;;23.85;9.18;;;;;;;3.04;99.34;94826.34;5073234;28;20465;-72
2020/12/08 05:32:24;;;;;;;29.13;10.20;;;;;;;3.07;99.54;94815.69;5078238;28;20036;-71
2020/12/08 05:34:55;;;;;;;28.33;9.25;;;;;;;3.14;98.89;94826.06;5070131;28;20078;-71
2020/12/08 05:37:22;;;;;;;18.00;8.25;;;;;;;3.23;98.69;94830.88;5083551;28;20041;-72
2020/12/08 05:39:49;;;;;;;16.30;8.38;;;;;;;3.34;98.42;94826.22;5083815;28;20040;-71
2020/12/08 05:42:20;;;;;;;23.67;13.13;;;;;;;3.35;97.85;94827.78;5082531;28;20040;-72
2020/12/08 05:44:51;;;;;;;16.80;9.05;;;;;;;3.27;97.71;94845.97;5088653;28;20044;-72
2020/12/08 05:47:21;;;;;;;29.40;15.10;;;;;;;3.25;97.60;94833.28;5084055;28;20045;-71
2020/12/08 05:50:02;;;;;;;42.95;21.50;;;;;;;3.27;96.87;94840.81;5071705;28;20047;-71
2020/12/08 05:52:33;;;;;;;44.53;26.27;;;;;;;3.21;97.47;94838.00;5087729;28;20036;-71
2020/12/08 05:55:14;;;;;;;47.75;23.58;;;;;;;3.22;97.41;94844.75;5071598;28;20086;-71
2020/12/08 05:57:41;;;;;;;31.90;13.48;;;;;;;3.07;97.33;94851.72;5082480;28;20070;-71
2020/12/08 06:00:22;;;;;;;30.90;14.93;;;;;;;2.96;97.65;94860.72;5072511;28;20074;-71
2020/12/08 06:02:48;;;;;;;19.92;11.30;;;;;;;2.81;97.95;94867.66;5068667;28;20040;-70
2020/12/08 06:05:45;;;;;;;15.27;8.18;;;;;;;2.86;98.09;94871.31;5070740;28;20060;-70
2020/12/08 06:08:12;;;;;;;14.73;10.60;;;;;;;2.83;97.62;94866.53;5077842;28;20052;-69
2020/12/08 06:10:49;;;;;;;13.30;8.00;;;;;;;2.91;97.79;94870.75;5083720;28;20040;-70
2020/12/08 06:13:48;;;;;;;15.40;9.13;;;;;;;2.95;98.51;94868.63;5081051;28;20172;-71
2020/12/08 06:16:17;;;;;;;25.35;12.75;;;;;;;2.96;98.71;94870.22;5070946;28;20116;-69
2020/12/08 06:18:44;;;;;;;13.80;8.38;;;;;;;3.02;98.51;94879.78;5070503;28;20418;-70
2020/12/08 06:21:28;;;;;;;13.93;8.52;;;;;;;3.05;98.17;94879.41;5073278;28;20051;-70
2020/12/08 06:23:57;;;;;;;14.75;7.40;;;;;;;3.10;98.07;94882.25;5080202;28;20043;-71
2020/12/08 06:26:29;;;;;;;11.13;7.13;;;;;;;3.15;98.27;94885.06;5069239;28;20028;-71
2020/12/08 06:28:56;;;;;;;17.33;7.63;;;;;;;3.23;97.91;94877.22;5083141;28;20044;-71
2020/12/08 06:31:23;;;;;;;16.17;7.53;;;;;;;3.30;97.67;94876.50;5086978;28;20036;-71
2020/12/08 06:33:49;;;;;;;31.20;15.60;;;;;;;3.30;97.30;94876.50;5082075;28;20110;-72
2020/12/08 06:36:18;;;;;;;22.50;11.75;;;;;;;3.30;96.67;94873.91;5081813;28;20409;-72
2020/12/08 06:39:00;;;;;;;33.35;15.85;;;;;;;3.38;96.50;94878.94;5081750;28;20119;-71
2020/12/08 06:41:29;;;;;;;16.80;9.38;;;;;;;3.40;96.11;94876.97;5075574;28;20083;-72
2020/12/08 06:43:55;;;;;;;14.93;9.27;;;;;;;3.48;95.59;94883.78;5075281;28;20049;-72
2020/12/08 06:46:21;;;;;;;14.13;9.27;;;;;;;3.45;95.19;94874.63;5078265;28;20040;-71
2020/12/08 06:49:02;;;;;;;15.55;8.93;;;;;;;3.54;94.69;94888.97;5084367;28;20425;-71
2020/12/08 06:51:29;;;;;;;23.98;11.52;;;;;;;3.35;94.78;94899.88;5066618;28;20121;-71
2020/12/08 06:53:56;;;;;;;24.73;11.10;;;;;;;3.40;94.69;94908.69;5068495;28;20056;-71
2020/12/08 06:56:32;;;;;;;41.92;17.55;;;;;;;3.38;94.51;94904.69;5075292;28;20040;-71
2020/12/08 06:58:59;;;;;;;30.75;15.95;;;;;;;3.27;95.02;94912.88;5074847;28;20123;-71
2020/12/08 07:01:25;;;;;;;22.30;13.13;;;;;;;3.23;95.17;94918.41;5082537;28;20036;-71
2020/12/08 07:03:53;;;;;;;17.58;11.32;;;;;;;3.20;94.93;94934.19;5076142;28;20036;-71
2020/12/08 07:06:20;;;;;;;33.88;15.20;;;;;;;3.01;95.09;94911.66;5070747;28;20066;-71
2020/12/08 07:08:48;;;;;;;35.08;15.07;;;;;;;3.08;95.85;94922.81;5077196;28;20045;-71
2020/12/08 07:11:21;;;;;;;23.23;12.32;;;;;;;3.03;96.15;94913.03;5071505;28;20044;-70
2020/12/08 07:13:59;;;;;;;54.33;18.88;;;;;;;3.16;96.02;94914.16;5068473;28;20490;-71
2020/12/08 07:16:28;;;;;;;56.60;16.88;;;;;;;3.13;96.09;94923.03;5068802;28;20119;-70
2020/12/08 07:18:56;;;;;;;69.15;21.77;;;;;;;3.13;96.30;94927.41;5071637;28;20060;-70
2020/12/08 07:21:24;;;;;;;65.47;21.48;;;;;;;3.11;96.66;94935.28;5084563;28;20054;-70
2020/12/08 07:24:09;;;;;;;57.00;17.85;;;;;;;3.09;96.60;94937.25;5078900;28;20051;-70
2020/12/08 07:26:35;;;;;;;84.57;28.08;;;;;;;3.15;97.09;94933.97;5071732;28;20114;-70
2020/12/08 07:29:01;;;;;;;37.60;18.05;;;;;;;3.14;96.94;94924.66;5068248;28;20054;-70
2020/12/08 07:31:29;;;;;;;36.58;14.70;;;;;;;3.29;96.34;94942.59;5067148;28;20041;-70
2020/12/08 07:33:56;;;;;;;36.80;14.82;;;;;;;3.40;95.46;94946.47;5078344;28;20042;-70
2020/12/08 07:36:30;;;;;;;42.78;18.98;;;;;;;3.44;95.04;94945.94;5081052;28;20127;-71
2020/12/08 07:38:59;;;;;;;32.05;16.33;;;;;;;3.38;94.42;94945.88;5086817;28;20113;-70
2020/12/08 07:41:30;;;;;;;30.83;16.65;;;;;;;3.35;94.65;94935.94;5075327;28;20045;-71
2020/12/08 07:43:59;;;;;;;40.45;17.90;;;;;;;3.50;94.86;94954.72;5065805;28;20117;-70
2020/12/08 07:46:30;;;;;;;46.35;18.23;;;;;;;3.55;94.76;94952.38;5086581;28;20039;-70
2020/12/08 07:49:08;;;;;;;41.85;22.60;;;;;;;3.62;94.91;94953.25;5079982;28;20040;-70
2020/12/08 07:51:37;;;;;;;67.50;26.17;;;;;;;3.65;95.03;94946.91;5072743;28;20566;-71
2020/12/08 07:54:06;;;;;;;54.55;23.00;;;;;;;3.74;94.96;94945.78;5084477;28;20032;-71
2020/12/08 07:56:35;;;;;;;41.88;20.25;;;;;;;3.83;95.25;94938.75;5069579;28;20116;-70
2020/12/08 07:59:07;;;;;;;39.40;21.15;;;;;;;3.89;94.86;94943.16;5077837;28;21614;-71
2020/12/08 08:01:42;;;;;;;70.75;32.05;;;;;;;3.81;94.69;94925.25;5085119;28;20123;-71
2020/12/08 08:04:09;;;;;;;64.57;29.90;;;;;;;3.95;94.40;94957.88;5084835;28;20056;-71
2020/12/08 08:06:38;;;;;;;27.77;15.82;;;;;;;3.82;94.58;94952.63;5070370;28;20071;-71
2020/12/08 08:09:06;;;;;;;24.90;12.82;;;;;;;3.87;94.37;94944.31;5088956;28;20672;-71
2020/12/08 08:11:35;;;;;;;28.92;13.95;;;;;;;3.80;94.64;94936.56;5090876;28;20481;-71
2020/12/08 08:14:02;;;;;;;33.58;17.73;;;;;;;3.87;94.16;94950.28;5078577;28;20040;-70
2020/12/08 08:16:29;;;;;;;37.85;22.45;;;;;;;3.97;94.63;94955.91;5077684;28;20047;-70
2020/12/08 08:18:57;;;;;;;34.22;18.33;;;;;;;3.96;94.44;94959.47;5075297;28;20059;-71
2020/12/08 08:21:23;;;;;;;31.80;18.75;;;;;;;4.01;94.74;94959.69;5085567;28;20124;-71
2020/12/08 08:23:50;;;;;;;30.15;16.98;;;;;;;4.05;93.81;94956.75;5073233;28;20094;-71
2020/12/08 08:26:16;;;;;;;26.90;17.15;;;;;;;4.08;93.89;94956.38;5085836;28;20036;-71
2020/12/08 08:28:43;;;;;;;38.92;18.65;;;;;;;4.17;93.95;94960.41;5073295;28;20086;-71
2020/12/08 08:31:09;;;;;;;39.72;21.10;;;;;;;4.20;93.76;94965.22;5075362;28;20115;-71
2020/12/08 08:33:36;;;;;;;37.08;20.65;;;;;;;4.34;93.16;94969.47;5085018;28;20059;-71
2020/12/08 08:36:02;;;;;;;43.42;23.55;;;;;;;4.22;92.97;94969.19;5069030;28;20464;-71
2020/12/08 08:38:28;;;;;;;49.67;25.02;;;;;;;4.34;93.69;94971.22;5085832;28;20116;-71
2020/12/08 08:40:56;;;;;;;38.78;23.42;;;;;;;4.46;94.12;94974.09;5079801;28;20041;-71
2020/12/08 08:43:26;;;;;;;34.95;20.60;;;;;;;4.61;93.52;94967.06;5072950;28;20037;-71
2020/12/08 08:45:54;;;;;;;57.08;34.53;;;;;;;4.56;91.39;94979.72;5081236;28;20116;-71
2020/12/08 08:48:24;;;;;;;27.75;16.98;;;;;;;4.46;91.08;94982.63;5078309;28;20113;-71
2020/12/08 08:50:51;;;;;;;41.67;25.50;;;;;;;4.45;91.15;94972.50;5077177;28;20048;-71
2020/12/08 08:53:18;;;;;;;43.38;24.35;;;;;;;4.59;92.11;94979.31;5086032;28;20059;-72
2020/12/08 08:55:44;;;;;;;35.65;20.77;;;;;;;4.54;91.51;94979.13;5073052;28;20063;-72
2020/12/08 08:58:13;;;;;;;32.85;19.85;;;;;;;4.47;91.53;94960.22;5077254;28;20134;-72
2020/12/08 09:00:39;;;;;;;40.85;24.67;;;;;;;4.62;91.91;94968.63;5080935;28;20036;-72
2020/12/08 09:03:06;;;;;;;41.88;25.65;;;;;;;4.74;91.89;94974.84;5083414;28;20048;-72
2020/12/08 09:05:33;;;;;;;39.85;23.38;;;;;;;4.69;90.49;94969.47;5069706;28;20180;-71
2020/12/08 09:08:00;;;;;;;50.83;30.83;;;;;;;4.65;92.07;94963.09;5087890;28;20058;-72
2020/12/08 09:10:26;;;;;;;33.55;19.65;;;;;;;4.79;91.88;94948.50;5076353;28;20518;-72
2020/12/08 09:12:53;;;;;;;43.55;23.23;;;;;;;4.73;89.68;94949.25;5073838;28;20040;-72
2020/12/08 09:15:19;;;;;;;32.92;19.05;;;;;;;4.99;90.14;94953.75;5069805;28;20134;-72
2020/12/08 09:17:46;;;;;;;64.45;35.92;;;;;;;5.13;89.66;94959.72;5068218;28;20036;-72
2020/12/08 09:20:13;;;;;;;77.32;48.78;;;;;;;5.05;88.38;94958.13;5077599;28;20064;-72
2020/12/08 09:22:41;;;;;;;44.63;25.45;;;;;;;5.04;88.65;94961.69;5084212;28;20036;-72
2020/12/08 09:25:09;;;;;;;53.97;27.90;;;;;;;5.15;89.42;94958.56;5079957;28;20115;-72
2020/12/08 09:27:35;;;;;;;24.55;14.25;;;;;;;5.15;87.77;94958.56;5086582;28;20093;-72
2020/12/08 09:30:03;;;;;;;25.55;14.43;;;;;;;5.21;88.55;94961.34;5074954;28;20454;-72
2020/12/08 09:32:30;;;;;;;38.78;17.98;;;;;;;5.21;88.70;94945.88;5087819;28;20405;-73
2020/12/08 09:34:56;;;;;;;51.70;25.85;;;;;;;5.34;88.99;94951.06;5076360;28;20134;-73
2020/12/08 09:37:24;;;;;;;67.80;31.75;;;;;;;5.55;89.56;94948.31;5088763;28;20036;-73
2020/12/08 09:39:52;;;;;;;51.58;25.90;;;;;;;5.78;88.25;94947.16;5080085;28;20044;-73
2020/12/08 09:42:19;;;;;;;36.85;19.08;;;;;;;5.87;86.57;94951.16;5084343;28;20106;-73
2020/12/08 09:44:47;;;;;;;36.70;21.85;;;;;;;5.99;85.59;94945.41;5072176;28;20033;-73
2020/12/08 09:47:15;;;;;;;20.90;13.23;;;;;;;6.49;83.94;94948.34;5080942;28;20078;-73
2020/12/08 09:49:42;;;;;;;54.15;24.58;;;;;;;6.59;83.88;94935.78;5080467;28;20076;-73
2020/12/08 09:52:09;;;;;;;26.10;14.82;;;;;;;6.69;82.01;94949.09;5075199;28;20048;-72
2020/12/08 09:54:35;;;;;;;19.27;11.55;;;;;;;6.60;81.31;94931.41;5078912;28;20043;-73
2020/12/08 09:57:01;;;;;;;19.20;12.43;;;;;;;6.80;81.27;94939.09;5073143;28;20044;-73
2020/12/08 09:59:28;;;;;;;21.25;13.70;;;;;;;7.12;80.94;94936.59;5082256;28;20043;-73
2020/12/08 10:01:55;;;;;;;21.42;12.05;;;;;;;7.72;77.70;94942.22;5088239;28;20036;-73
2020/12/08 10:04:21;;;;;;;24.45;14.35;;;;;;;8.50;75.12;94938.44;5081946;28;20044;-73
2020/12/08 10:06:49;;;;;;;19.73;12.68;;;;;;;9.14;73.00;94930.34;5084339;28;20578;-74
2020/12/08 10:09:15;;;;;;;29.83;16.10;;;;;;;9.84;71.29;94926.41;5078418;28;20068;-74
2020/12/08 10:11:41;;;;;;;22.08;12.70;;;;;;;10.42;67.29;94927.50;5089699;28;20544;-72
2020/12/08 10:14:08;;;;;;;23.23;15.63;;;;;;;10.89;67.81;94912.59;5075466;28;20489;-72
2020/12/08 10:16:34;;;;;;;18.90;13.13;;;;;;;11.18;66.20;94920.47;5068088;28;20044;-72
2020/12/08 10:19:02;;;;;;;24.65;16.48;;;;;;;11.83;62.85;94921.06;5073644;28;20044;-72
2020/12/08 10:21:28;;;;;;;18.45;11.80;;;;;;;11.45;62.18;94930.31;5083628;28;20040;-72
2020/12/08 10:23:55;;;;;;;19.20;11.82;;;;;;;11.46;62.82;94921.47;5070492;28;20115;-72
2020/12/08 10:26:22;;;;;;;18.35;11.32;;;;;;;11.75;61.58;94913.63;5086557;28;20046;-71
2020/12/08 10:28:49;;;;;;;23.55;15.48;;;;;;;12.27;61.11;94921.25;5075529;28;20130;-72
2020/12/08 10:31:19;;;;;;;15.88;11.23;;;;;;;12.61;60.10;94914.16;5087240;28;20405;-72
2020/12/08 10:33:46;;;;;;;15.00;10.15;;;;;;;12.43;58.42;94907.38;5087252;28;20508;-72
2020/12/08 10:36:13;;;;;;;20.40;13.18;;;;;;;12.32;58.54;94917.94;5066846;28;20032;-71
2020/12/08 10:38:39;;;;;;;24.08;15.63;;;;;;;12.51;58.59;94916.63;5075082;28;20042;-71
2020/12/08 10:41:06;;;;;;;15.45;11.20;;;;;;;12.26;57.14;94909.22;5070063;28;20119;-71
2020/12/08 10:43:33;;;;;;;15.40;11.70;;;;;;;12.21;59.80;94909.16;5074148;28;20044;-72
2020/12/08 10:46:04;;;;;;;12.90;9.48;;;;;;;12.15;57.28;94913.50;5067350;28;20127;-71
2020/12/08 10:48:31;;;;;;;18.00;12.45;;;;;;;11.83;58.29;94910.63;5066700;28;20047;-72
2020/12/08 10:50:58;;;;;;;14.63;10.20;;;;;;;11.32;59.61;94914.97;5078119;28;20044;-72
2020/12/08 10:53:24;;;;;;;18.98;11.75;;;;;;;11.26;61.85;94912.25;5075743;28;20067;-74
2020/12/08 10:55:50;;;;;;;16.63;11.82;;;;;;;11.35;59.48;94893.66;5078188;28;20033;-72
2020/12/08 10:58:18;;;;;;;23.17;15.00;;;;;;;11.13;62.20;94912.53;5075141;28;20036;-72
2020/12/08 11:00:45;;;;;;;20.83;14.25;;;;;;;11.62;60.61;94910.28;5075240;28;20043;-72
2020/12/08 11:03:11;;;;;;;26.33;15.82;;;;;;;12.14;59.84;94911.16;5086748;28;20047;-71
2020/12/08 11:05:41;;;;;;;26.63;16.52;;;;;;;12.68;57.06;94900.16;5084438;28;20119;-72
2020/12/08 11:08:09;;;;;;;25.40;17.58;;;;;;;12.59;58.23;94903.16;5076326;28;20420;-73
2020/12/08 11:10:36;;;;;;;27.00;20.30;;;;;;;12.10;57.35;94904.78;5084441;28;20036;-72
2020/12/08 11:13:02;;;;;;;29.00;20.23;;;;;;;11.55;59.05;94920.06;5082189;28;20041;-72
2020/12/08 11:15:28;;;;;;;30.30;20.63;;;;;;;11.07;62.42;94903.03;5065389;28;20093;-72
2020/12/08 11:17:55;;;;;;;29.90;19.85;;;;;;;11.03;61.38;94912.34;5069273;28;20044;-72
2020/12/08 11:21:05;;;;;;;34.03;20.98;;;;;;;10.66;62.44;94920.44;5070315;28;20494;-71
2020/12/08 11:23:32;;;;;;;32.15;20.52;;;;;;;9.99;64.74;94915.56;5067223;28;20041;-72
2020/12/08 11:25:58;;;;;;;33.22;22.42;;;;;;;9.32;67.16;94917.31;5082639;28;20040;-72
2020/12/08 11:28:25;;;;;;;38.05;25.25;;;;;;;9.06;69.07;94910.66;5085580;28;20383;-72
2020/12/08 11:30:55;;;;;;;30.15;19.80;;;;;;;8.97;69.28;94927.56;5081976;28;20057;-72
2020/12/08 11:33:39;;;;;;;33.85;21.27;;;;;;;9.00;70.17;94921.91;5066142;28;20043;-72